createdAt,value
2023-03-10T08:28:56.167Z,994
2023-03-10T08:31:03.982Z,994
2023-03-10T08:32:55.559Z,994
2023-03-10T08:34:55.872Z,994
2023-03-10T08:36:55.546Z,994
2023-03-10T08:38:55.540Z,994
2023-03-10T08:42:55.541Z,994
2023-03-10T08:44:55.882Z,994
2023-03-10T08:46:55.587Z,994
2023-03-10T08:48:55.555Z,994
2023-03-10T08:50:55.869Z,994
2023-03-10T08:52:55.547Z,994
2023-03-10T08:54:55.947Z,994
2023-03-10T08:56:55.553Z,994
2023-03-10T08:58:55.554Z,994
2023-03-10T09:00:55.874Z,994
2023-03-10T09:02:55.613Z,994
2023-03-10T09:04:56.171Z,994
2023-03-10T09:06:55.562Z,994
2023-03-10T09:08:55.588Z,994
2023-03-10T09:10:55.852Z,994
2023-03-10T09:14:55.525Z,994
2023-03-10T09:16:55.554Z,994
2023-03-10T09:18:55.535Z,994
2023-03-10T09:24:55.576Z,994
2023-03-10T09:26:55.854Z,994
2023-03-10T09:28:57.177Z,994
2023-03-10T09:30:55.535Z,994
2023-03-10T09:32:55.620Z,994
2023-03-10T09:34:55.532Z,995
2023-03-10T09:36:55.544Z,995
2023-03-10T09:40:55.557Z,994
2023-03-10T09:42:55.888Z,994
2023-03-10T09:44:55.900Z,994
2023-03-10T09:46:55.884Z,994
2023-03-10T09:48:55.541Z,994
2023-03-10T09:50:55.545Z,994
2023-03-10T09:52:55.535Z,994
2023-03-10T09:56:55.732Z,994
2023-03-10T09:58:55.559Z,995
2023-03-10T10:00:55.562Z,995
2023-03-10T10:02:55.896Z,995
2023-03-10T10:04:55.880Z,995
2023-03-10T10:06:55.860Z,995
2023-03-10T10:09:04.051Z,995
2023-03-10T10:10:55.569Z,995
2023-03-10T10:12:55.553Z,995
2023-03-10T10:14:57.597Z,995
2023-03-10T10:16:55.632Z,995
2023-03-10T10:18:55.885Z,995
2023-03-10T10:20:55.869Z,994
2023-03-10T10:22:56.192Z,994
2023-03-10T10:24:55.864Z,994
2023-03-10T10:26:55.556Z,995
2023-03-10T10:28:55.547Z,994
2023-03-10T10:30:55.583Z,994
2023-03-10T10:32:55.632Z,994
2023-03-10T10:34:56.140Z,994
2023-03-10T10:36:55.559Z,994
2023-03-10T10:38:55.535Z,994
2023-03-10T10:40:55.897Z,994
2023-03-10T10:42:55.875Z,995
2023-03-10T10:44:55.560Z,995
2023-03-10T10:46:55.538Z,995
2023-03-10T10:48:55.537Z,994
2023-03-10T10:50:55.861Z,994
2023-03-10T10:52:55.887Z,994
2023-03-10T10:54:55.545Z,994
2023-03-10T10:56:55.555Z,994
2023-03-10T10:58:55.545Z,994
2023-03-10T11:00:55.573Z,994
2023-03-10T11:02:55.579Z,994
2023-03-10T11:04:55.535Z,994
2023-03-10T11:06:55.862Z,994
2023-03-10T11:08:55.569Z,994
2023-03-10T11:10:55.544Z,994
2023-03-10T11:12:55.862Z,994
2023-03-10T11:14:57.600Z,994
2023-03-10T11:16:56.207Z,994
2023-03-10T11:18:55.571Z,994
2023-03-10T11:20:55.540Z,994
2023-03-10T11:22:55.545Z,994
2023-03-10T11:24:55.897Z,994
2023-03-10T11:26:55.567Z,994
2023-03-10T11:28:55.548Z,994
2023-03-10T11:30:55.584Z,994
2023-03-10T11:32:55.554Z,994
2023-03-10T11:34:55.543Z,994
2023-03-10T11:36:56.910Z,994
2023-03-10T11:38:55.545Z,994
2023-03-10T11:40:56.883Z,994
2023-03-10T11:42:55.864Z,994
2023-03-10T11:44:55.557Z,994
2023-03-10T11:46:55.561Z,994
2023-03-10T11:48:55.871Z,994
2023-03-10T11:50:55.569Z,994
2023-03-10T11:52:55.563Z,994
2023-03-10T11:54:55.554Z,994
2023-03-10T11:56:55.570Z,994
2023-03-10T11:58:55.545Z,994
2023-03-10T12:00:55.548Z,994
2023-03-10T12:02:55.866Z,994
2023-03-10T12:04:55.567Z,994
2023-03-10T12:06:56.213Z,994
2023-03-10T12:08:57.478Z,994
2023-03-10T12:10:55.551Z,994
2023-03-10T12:12:55.886Z,994
2023-03-10T12:14:58.349Z,994
2023-03-10T12:16:55.560Z,994
2023-03-10T12:18:55.556Z,994
2023-03-10T12:22:55.569Z,993
2023-03-10T12:24:55.576Z,994
2023-03-10T12:26:55.904Z,993
2023-03-10T12:28:57.762Z,993
2023-03-10T12:30:55.554Z,993
2023-03-10T12:32:56.241Z,993
2023-03-10T12:36:55.545Z,993
2023-03-10T12:38:55.557Z,993
2023-03-10T12:40:55.618Z,993
2023-03-10T12:42:55.879Z,993
2023-03-10T12:44:55.886Z,993
2023-03-10T12:46:55.580Z,993
2023-03-10T12:48:55.552Z,993
2023-03-10T12:50:55.568Z,993
2023-03-10T12:52:55.866Z,993
2023-03-10T12:54:55.555Z,993
2023-03-10T12:56:55.560Z,993
2023-03-10T12:58:55.544Z,993
2023-03-10T13:00:55.932Z,993
2023-03-10T13:02:55.557Z,993
2023-03-10T13:04:55.551Z,993
2023-03-10T13:06:55.874Z,993
2023-03-10T13:08:55.580Z,993
2023-03-10T13:10:55.565Z,993
2023-03-10T13:12:55.901Z,993
2023-03-10T13:14:55.580Z,994
2023-03-10T13:16:55.614Z,993
2023-03-10T13:18:55.916Z,994
2023-03-10T13:20:55.913Z,994
2023-03-10T13:22:55.882Z,994
2023-03-10T13:24:55.874Z,994
2023-03-10T13:26:55.918Z,994
2023-03-10T13:28:55.895Z,994
2023-03-10T13:30:55.590Z,994
2023-03-10T13:32:56.234Z,994
2023-03-10T13:34:55.587Z,993
2023-03-10T13:36:55.573Z,994
2023-03-10T13:38:55.567Z,994
2023-03-10T13:40:55.568Z,994
2023-03-10T13:42:55.564Z,993
2023-03-10T13:44:55.883Z,994
2023-03-10T13:46:55.595Z,994
2023-03-10T13:48:55.580Z,994
2023-03-10T13:50:55.879Z,994
2023-03-10T13:52:56.221Z,994
2023-03-10T13:54:55.588Z,994
2023-03-10T13:56:56.288Z,994
2023-03-10T13:58:55.580Z,994
2023-03-10T14:00:55.630Z,994
2023-03-10T14:02:55.915Z,994
2023-03-10T14:06:55.600Z,994
2023-03-10T14:08:55.921Z,994
2023-03-10T14:10:55.908Z,994
2023-03-10T14:12:56.230Z,994
2023-03-10T14:14:55.601Z,994
2023-03-10T14:16:55.653Z,994
2023-03-10T14:18:55.580Z,994
2023-03-10T14:20:55.567Z,994
2023-03-10T14:22:55.601Z,994
2023-03-10T14:24:55.553Z,994
2023-03-10T14:26:55.563Z,994
2023-03-10T14:28:55.565Z,994
2023-03-10T14:30:55.682Z,994
2023-03-10T14:32:55.653Z,994
2023-03-10T14:34:55.559Z,994
2023-03-10T14:36:55.903Z,994
2023-03-10T14:38:56.845Z,994
2023-03-10T14:40:56.171Z,994
2023-03-10T14:42:55.586Z,994
2023-03-10T14:46:55.766Z,994
2023-03-10T14:48:55.559Z,994
2023-03-10T14:50:56.884Z,994
2023-03-10T14:52:55.929Z,994
2023-03-10T14:54:55.557Z,994
2023-03-10T14:56:55.560Z,994
2023-03-10T14:58:55.563Z,994
2023-03-10T15:00:55.590Z,994
2023-03-10T15:02:55.581Z,994
2023-03-10T15:06:55.568Z,994
2023-03-10T15:10:55.898Z,994
2023-03-10T15:12:55.590Z,994
2023-03-10T15:14:55.595Z,994
2023-03-10T15:16:56.565Z,994
2023-03-10T15:18:55.561Z,994
2023-03-10T15:20:55.564Z,995
2023-03-10T15:22:55.562Z,994
2023-03-10T15:24:55.893Z,994
2023-03-10T15:26:55.596Z,994
2023-03-10T15:28:56.190Z,994
2023-03-10T15:30:56.019Z,994
2023-03-10T15:32:55.981Z,994
2023-03-10T15:36:55.592Z,995
2023-03-10T15:38:55.603Z,995
2023-03-10T15:40:55.590Z,995
2023-03-10T15:42:55.608Z,995
2023-03-10T15:44:55.592Z,995
2023-03-10T15:46:55.601Z,994
2023-03-10T15:48:55.613Z,995
2023-03-10T15:50:57.352Z,995
2023-03-10T15:52:55.577Z,995
2023-03-10T15:54:55.567Z,995
2023-03-10T15:56:55.583Z,995
2023-03-10T15:58:55.583Z,995
2023-03-10T16:00:55.568Z,995
2023-03-10T16:02:55.572Z,995
2023-03-10T16:06:55.909Z,995
2023-03-10T16:08:55.574Z,995
2023-03-10T16:10:55.575Z,995
2023-03-10T16:12:55.569Z,995
2023-03-10T16:14:55.567Z,995
2023-03-10T16:16:55.594Z,995
2023-03-10T16:18:55.608Z,995
2023-03-10T16:20:55.576Z,995
2023-03-10T16:22:55.561Z,995
2023-03-10T16:24:55.901Z,995
2023-03-10T16:26:55.921Z,995
2023-03-10T16:28:55.595Z,995
2023-03-10T16:30:55.574Z,995
2023-03-10T16:32:55.669Z,995
2023-03-10T16:36:55.591Z,995
2023-03-10T16:38:55.596Z,995
2023-03-10T16:40:55.574Z,995
2023-03-10T16:42:55.576Z,995
2023-03-10T16:44:55.566Z,995
2023-03-10T16:46:55.575Z,995
2023-03-10T16:48:55.584Z,995
2023-03-10T16:50:55.575Z,995
2023-03-10T16:52:55.572Z,995
2023-03-10T16:54:56.212Z,996
2023-03-10T16:58:55.601Z,995
2023-03-10T17:00:55.596Z,996
2023-03-10T17:02:55.572Z,996
2023-03-10T17:04:55.932Z,996
2023-03-10T17:06:55.573Z,996
2023-03-10T17:08:55.571Z,996
2023-03-10T17:10:55.579Z,996
2023-03-10T17:12:55.910Z,996
2023-03-10T17:14:55.567Z,996
2023-03-10T17:16:55.625Z,996
2023-03-10T17:18:55.569Z,996
2023-03-10T17:20:55.894Z,996
2023-03-10T17:22:55.601Z,996
2023-03-10T17:24:55.573Z,996
2023-03-10T17:26:55.926Z,996
2023-03-10T17:28:55.918Z,996
2023-03-10T17:30:55.596Z,997
2023-03-10T17:32:55.634Z,997
2023-03-10T17:34:55.603Z,997
2023-03-10T17:36:55.940Z,997
2023-03-10T17:38:56.238Z,996
2023-03-10T17:40:55.610Z,997
2023-03-10T17:42:56.612Z,997
2023-03-10T17:44:55.922Z,997
2023-03-10T17:46:55.608Z,997
2023-03-10T17:48:55.917Z,997
2023-03-10T17:50:55.624Z,997
2023-03-10T17:52:55.572Z,997
2023-03-10T17:54:55.576Z,997
2023-03-10T17:56:55.973Z,997
2023-03-10T17:58:56.248Z,997
2023-03-10T18:00:55.918Z,997
2023-03-10T18:02:56.023Z,997
2023-03-10T18:04:55.600Z,997
2023-03-10T18:06:55.603Z,997
2023-03-10T18:08:56.517Z,997
2023-03-10T18:10:55.911Z,997
2023-03-10T18:12:55.613Z,997
2023-03-10T18:14:56.221Z,997
2023-03-10T18:18:55.586Z,997
2023-03-10T18:20:55.589Z,997
2023-03-10T18:24:55.578Z,997
2023-03-10T18:26:55.586Z,997
2023-03-10T18:28:56.209Z,997
2023-03-10T18:30:55.983Z,997
2023-03-10T18:32:55.634Z,997
2023-03-10T18:34:55.576Z,997
2023-03-10T18:38:55.915Z,997
2023-03-10T18:40:55.581Z,997
2023-03-10T18:42:55.586Z,997
2023-03-10T18:44:55.581Z,997
2023-03-10T18:46:55.901Z,997
2023-03-10T18:48:55.712Z,997
2023-03-10T18:50:55.587Z,997
2023-03-10T18:52:55.596Z,997
2023-03-10T18:54:56.224Z,997
2023-03-10T18:56:55.603Z,997
2023-03-10T18:58:55.578Z,997
2023-03-10T19:00:55.943Z,997
2023-03-10T19:02:55.720Z,997
2023-03-10T19:04:55.607Z,997
2023-03-10T19:06:58.289Z,997
2023-03-10T19:08:56.218Z,997
2023-03-10T19:10:55.603Z,997
2023-03-10T19:12:55.600Z,997
2023-03-10T19:14:55.593Z,997
2023-03-10T19:16:55.914Z,997
2023-03-10T19:18:56.624Z,997
2023-03-10T19:20:55.575Z,997
2023-03-10T19:22:55.918Z,997
2023-03-10T19:24:55.592Z,997
2023-03-10T19:26:55.622Z,997
2023-03-10T19:28:55.581Z,997
2023-03-10T19:30:55.611Z,997
2023-03-10T19:32:55.927Z,997
2023-03-10T19:34:55.614Z,997
2023-03-10T19:36:55.627Z,997
2023-03-10T19:38:55.581Z,997
2023-03-10T19:40:55.586Z,997
2023-03-10T19:42:55.586Z,997
2023-03-10T19:44:55.929Z,997
2023-03-10T19:46:55.645Z,997
2023-03-10T19:48:55.598Z,997
2023-03-10T19:50:55.598Z,997
2023-03-10T19:52:55.606Z,997
2023-03-10T19:54:55.608Z,997
2023-03-10T19:56:55.592Z,997
2023-03-10T19:58:55.591Z,997
2023-03-10T20:00:55.953Z,997
2023-03-10T20:02:55.941Z,997
2023-03-10T20:04:55.620Z,997
2023-03-10T20:06:55.590Z,997
2023-03-10T20:08:55.588Z,997
2023-03-10T20:10:55.608Z,997
2023-03-10T20:12:55.594Z,997
2023-03-10T20:14:55.589Z,997
2023-03-10T20:16:55.645Z,997
2023-03-10T20:18:56.246Z,997
2023-03-10T20:20:55.927Z,997
2023-03-10T20:22:55.607Z,997
2023-03-10T20:24:55.627Z,997
2023-03-10T20:26:55.629Z,997
2023-03-10T20:28:55.593Z,997
2023-03-10T20:30:55.593Z,997
2023-03-10T20:32:55.616Z,997
2023-03-10T20:34:55.903Z,998
2023-03-10T20:36:55.617Z,997
2023-03-10T20:38:55.593Z,998
2023-03-10T20:40:55.599Z,998
2023-03-10T20:42:55.596Z,998
2023-03-10T20:44:55.920Z,997
2023-03-10T20:46:55.616Z,997
2023-03-10T20:52:55.619Z,998
2023-03-10T20:54:55.914Z,998
2023-03-10T20:56:55.623Z,997
2023-03-10T20:58:55.937Z,998
2023-03-10T21:00:55.640Z,998
2023-03-10T21:02:55.609Z,998
2023-03-10T21:04:55.593Z,998
2023-03-10T21:06:55.594Z,998
2023-03-10T21:08:55.599Z,998
2023-03-10T21:10:55.911Z,998
2023-03-10T21:12:56.245Z,998
2023-03-10T21:14:55.931Z,998
2023-03-10T21:16:55.956Z,998
2023-03-10T21:20:55.615Z,998
2023-03-10T21:22:56.248Z,999
2023-03-10T21:24:55.633Z,999
2023-03-10T21:26:55.605Z,998
2023-03-10T21:28:55.602Z,999
2023-03-10T21:30:56.093Z,999
2023-03-10T21:32:55.970Z,999
2023-03-10T21:34:55.673Z,999
2023-03-10T21:36:55.631Z,999
2023-03-10T21:38:55.979Z,999
2023-03-10T21:40:55.928Z,999
2023-03-10T21:42:55.618Z,1000
2023-03-10T21:44:55.605Z,1000
2023-03-10T21:46:55.599Z,1000
2023-03-10T21:48:55.931Z,1000
2023-03-10T21:50:55.627Z,1000
2023-03-10T21:52:56.033Z,1000
2023-03-10T21:54:55.642Z,1000
2023-03-10T22:00:56.291Z,1001
2023-03-10T22:02:55.600Z,1001
2023-03-10T22:04:56.014Z,1001
2023-03-10T22:06:55.601Z,1001
2023-03-10T22:08:55.928Z,1001
2023-03-10T22:10:55.602Z,1001
2023-03-10T22:12:55.613Z,1001
2023-03-10T22:14:55.929Z,1001
2023-03-10T22:16:55.607Z,1001
2023-03-10T22:18:55.609Z,1001
2023-03-10T22:20:55.610Z,1001
2023-03-10T22:22:55.594Z,1001
2023-03-10T22:24:55.610Z,1001
2023-03-10T22:26:55.622Z,1001
2023-03-10T22:28:55.596Z,1001
2023-03-10T22:30:55.603Z,1001
2023-03-10T22:32:55.599Z,1001
2023-03-10T22:34:55.597Z,1001
2023-03-10T22:36:55.601Z,1001
2023-03-10T22:38:55.599Z,1001
2023-03-10T22:40:56.220Z,1001
2023-03-10T22:42:55.948Z,1002
2023-03-10T22:44:55.598Z,1002
2023-03-10T22:46:56.009Z,1002
2023-03-10T22:48:55.972Z,1002
2023-03-10T22:50:55.956Z,1002
2023-03-10T22:52:55.627Z,1002
2023-03-10T22:54:55.934Z,1002
2023-03-10T22:56:55.626Z,1002
2023-03-10T22:58:55.987Z,1002
2023-03-10T23:00:55.616Z,1002
2023-03-10T23:02:55.673Z,1002
2023-03-10T23:04:55.629Z,1002
2023-03-10T23:06:55.595Z,1002
2023-03-10T23:08:55.913Z,1002
2023-03-10T23:10:56.230Z,1002
2023-03-10T23:12:55.954Z,1002
2023-03-10T23:14:55.972Z,1002
2023-03-10T23:16:55.629Z,1002
2023-03-10T23:18:56.261Z,1002
2023-03-10T23:20:55.629Z,1003
2023-03-10T23:22:55.607Z,1003
2023-03-10T23:24:55.600Z,1003
2023-03-10T23:26:55.941Z,1003
2023-03-10T23:28:55.640Z,1003
2023-03-10T23:30:55.626Z,1003
2023-03-10T23:32:55.955Z,1003
2023-03-10T23:34:55.662Z,1003
2023-03-10T23:36:56.257Z,1003
2023-03-10T23:38:55.939Z,1003
2023-03-10T23:40:55.645Z,1003
2023-03-10T23:42:55.979Z,1003
2023-03-10T23:44:55.627Z,1003
2023-03-10T23:46:55.629Z,1003
2023-03-10T23:48:55.640Z,1003
2023-03-10T23:50:55.946Z,1003
2023-03-10T23:52:55.625Z,1003
2023-03-10T23:54:55.607Z,1003
2023-03-10T23:56:55.615Z,1003
2023-03-10T23:58:55.599Z,1003
